createdAt,value
2022-12-13T00:01:28.859Z,3.97
2022-12-13T00:04:01.105Z,6.38
2022-12-13T00:06:28.409Z,4.18
2022-12-13T00:08:55.264Z,3.92
2022-12-13T00:11:21.962Z,4.95
2022-12-13T00:13:48.703Z,2.75
2022-12-13T00:16:18.699Z,2.95
2022-12-13T00:18:50.021Z,2.80
2022-12-13T00:21:19.039Z,5.47
2022-12-13T00:23:46.400Z,2.70
2022-12-13T00:26:16.350Z,2.20
2022-12-13T00:28:43.479Z,2.55
2022-12-13T00:31:51.209Z,3.45
2022-12-13T00:33:56.814Z,6.80
2022-12-13T00:36:23.472Z,3.13
2022-12-13T00:39:00.685Z,3.33
2022-12-13T00:41:32.930Z,3.38
2022-12-13T00:44:00.761Z,2.45
2022-12-13T00:46:28.757Z,2.42
2022-12-13T00:48:57.637Z,4.22
2022-12-13T00:51:25.599Z,2.70
2022-12-13T00:53:52.128Z,3.35
2022-12-13T00:56:21.454Z,2.97
2022-12-13T00:58:52.215Z,2.72
2022-12-13T01:01:25.297Z,2.13
2022-12-13T01:03:54.406Z,3.58
2022-12-13T01:06:23.260Z,2.42
2022-12-13T01:08:50.033Z,2.30
2022-12-13T01:11:17.983Z,1.88
2022-12-13T01:13:44.927Z,1.58
2022-12-13T01:16:13.108Z,2.10
2022-12-13T01:18:40.765Z,1.85
2022-12-13T01:21:11.740Z,2.83
2022-12-13T01:23:39.056Z,2.90
2022-12-13T01:26:08.802Z,2.25
2022-12-13T01:28:35.745Z,1.60
2022-12-13T01:31:06.116Z,3.30
2022-12-13T01:33:33.462Z,1.98
2022-12-13T01:36:09.207Z,2.15
2022-12-13T01:38:37.676Z,2.28
2022-12-13T01:41:16.733Z,2.35
2022-12-13T01:43:44.483Z,1.85
2022-12-13T01:46:12.477Z,4.00
2022-12-13T01:48:48.427Z,2.00
2022-12-13T01:51:19.046Z,1.67
2022-12-13T01:53:48.065Z,2.83
2022-12-13T01:56:49.861Z,2.92
2022-12-13T01:59:19.037Z,2.83
2022-12-13T02:01:47.627Z,3.70
2022-12-13T02:04:16.766Z,2.92
2022-12-13T02:06:45.948Z,2.65
2022-12-13T02:09:13.844Z,1.83
2022-12-13T02:11:43.576Z,1.55
2022-12-13T02:14:10.226Z,2.30
2022-12-13T02:16:48.640Z,1.85
2022-12-13T02:19:40.487Z,2.08
2022-12-13T02:22:31.399Z,5.78
2022-12-13T02:25:28.787Z,3.47
2022-12-13T02:28:30.588Z,2.55
2022-12-13T02:31:04.450Z,1.58
2022-12-13T02:33:57.391Z,2.58
2022-12-13T02:36:47.481Z,2.10
2022-12-13T02:39:31.027Z,1.50
2022-12-13T02:42:02.295Z,2.30
2022-12-13T02:44:37.597Z,2.55
2022-12-13T02:47:21.989Z,2.70
2022-12-13T02:52:23.932Z,1.75
2022-12-13T02:54:50.424Z,1.77
2022-12-13T02:57:32.041Z,1.67
2022-12-13T03:00:05.185Z,5.40
2022-12-13T03:02:43.237Z,2.33
2022-12-13T03:06:08.167Z,2.47
2022-12-13T03:09:08.259Z,1.50
2022-12-13T03:12:32.082Z,2.25
2022-12-13T03:15:06.847Z,1.80
2022-12-13T03:20:03.932Z,2.35
2022-12-13T03:22:49.160Z,2.47
2022-12-13T03:25:30.950Z,2.20
2022-12-13T03:28:01.265Z,1.67
2022-12-13T03:30:30.843Z,2.63
2022-12-13T03:32:57.353Z,2.45
2022-12-13T03:35:25.350Z,1.73
2022-12-13T03:38:02.272Z,1.95
2022-12-13T03:40:30.193Z,2.20
2022-12-13T03:42:57.047Z,1.60
2022-12-13T03:45:23.747Z,1.00
2022-12-13T03:47:50.389Z,1.70
2022-12-13T03:50:26.383Z,2.72
2022-12-13T03:52:59.149Z,4.18
2022-12-13T03:55:26.339Z,1.60
2022-12-13T03:57:52.876Z,3.13
2022-12-13T04:00:19.925Z,1.98
2022-12-13T04:02:46.761Z,1.75
2022-12-13T04:05:13.471Z,1.90
2022-12-13T04:07:40.474Z,1.55
2022-12-13T04:10:26.371Z,1.30
2022-12-13T04:13:13.270Z,2.40
2022-12-13T04:15:40.278Z,1.25
2022-12-13T04:18:07.033Z,1.17
2022-12-13T04:20:33.689Z,2.53
2022-12-13T04:23:00.650Z,2.00
2022-12-13T04:25:27.227Z,3.13
2022-12-13T04:27:53.800Z,4.78
2022-12-13T04:30:20.400Z,2.20
2022-12-13T04:32:47.002Z,1.48
2022-12-13T04:35:13.831Z,2.35
2022-12-13T04:37:43.429Z,3.15
2022-12-13T04:40:11.041Z,2.53
2022-12-13T04:42:37.658Z,2.03
2022-12-13T04:45:04.682Z,3.35
2022-12-13T04:47:31.161Z,1.52
2022-12-13T04:49:57.730Z,1.70
2022-12-13T04:52:24.359Z,2.60
2022-12-13T04:54:55.357Z,3.90
2022-12-13T04:57:23.415Z,1.83
2022-12-13T04:59:49.977Z,2.00
2022-12-13T05:02:23.377Z,2.33
2022-12-13T05:04:54.338Z,5.05
2022-12-13T05:07:22.202Z,2.92
2022-12-13T05:09:49.012Z,2.58
2022-12-13T05:12:22.400Z,1.85
2022-12-13T05:14:49.434Z,2.50
2022-12-13T05:17:16.861Z,2.55
2022-12-13T05:19:43.418Z,6.65
2022-12-13T05:22:19.685Z,2.70
2022-12-13T05:24:47.693Z,6.07
2022-12-13T05:27:24.101Z,2.95
2022-12-13T05:30:02.413Z,2.30
2022-12-13T05:32:42.563Z,7.45
2022-12-13T05:35:12.048Z,7.05
2022-12-13T05:37:38.945Z,3.80
2022-12-13T05:40:06.190Z,5.90
2022-12-13T05:42:32.771Z,5.68
2022-12-13T05:44:59.406Z,5.55
2022-12-13T05:47:25.935Z,6.93
2022-12-13T05:49:52.701Z,2.53
2022-12-13T05:52:21.474Z,3.17
2022-12-13T05:54:57.330Z,3.00
2022-12-13T05:57:27.744Z,2.88
2022-12-13T05:59:54.326Z,4.13
2022-12-13T06:02:21.848Z,3.30
2022-12-13T06:04:49.025Z,3.88
2022-12-13T06:07:15.599Z,2.75
2022-12-13T06:09:42.480Z,2.88
2022-12-13T06:12:31.199Z,2.60
2022-12-13T06:15:01.383Z,3.97
2022-12-13T06:17:32.856Z,2.42
2022-12-13T06:20:00.208Z,5.30
2022-12-13T06:22:27.615Z,2.75
2022-12-13T06:24:54.929Z,4.80
2022-12-13T06:27:21.752Z,2.92
2022-12-13T06:29:48.297Z,3.60
2022-12-13T06:32:14.902Z,4.78
2022-12-13T06:34:41.446Z,3.17
2022-12-13T06:37:11.183Z,4.32
2022-12-13T06:39:37.731Z,2.75
2022-12-13T06:42:08.526Z,4.85
2022-12-13T06:44:35.853Z,3.58
2022-12-13T06:47:10.288Z,6.30
2022-12-13T06:49:40.594Z,4.80
2022-12-13T06:52:13.021Z,4.28
2022-12-13T06:54:40.249Z,6.15
2022-12-13T06:57:06.796Z,7.03
2022-12-13T06:59:33.350Z,8.90
2022-12-13T07:02:03.491Z,7.75
2022-12-13T07:04:31.674Z,6.60
2022-12-13T07:07:01.321Z,5.15
2022-12-13T07:09:30.942Z,4.78
2022-12-13T07:11:58.403Z,5.38
2022-12-13T07:14:25.251Z,4.78
2022-12-13T07:16:51.755Z,6.30
2022-12-13T07:19:23.387Z,5.28
2022-12-13T07:21:51.702Z,8.55
2022-12-13T07:24:18.541Z,13.93
2022-12-13T07:26:45.166Z,3.90
2022-12-13T07:29:11.700Z,6.75
2022-12-13T07:31:38.237Z,7.38
2022-12-13T07:34:04.871Z,7.80
2022-12-13T07:36:31.613Z,8.63
2022-12-13T07:38:59.368Z,7.82
2022-12-13T07:41:26.841Z,5.47
2022-12-13T07:43:55.776Z,6.07
2022-12-13T07:46:31.987Z,6.90
2022-12-13T07:49:01.567Z,13.60
2022-12-13T07:51:28.951Z,3.97
2022-12-13T07:53:55.462Z,9.48
2022-12-13T07:56:22.192Z,7.20
2022-12-13T07:58:48.838Z,8.73
2022-12-13T08:01:15.349Z,9.82
2022-12-13T08:03:42.017Z,9.60
2022-12-13T08:06:12.526Z,6.05
2022-12-13T08:08:39.548Z,6.05
2022-12-13T08:11:15.461Z,10.57
2022-12-13T08:13:42.266Z,7.55
2022-12-13T08:16:27.183Z,15.23
2022-12-13T08:19:02.850Z,10.10
2022-12-13T08:21:58.252Z,8.20
2022-12-13T08:24:28.146Z,11.90
2022-12-13T08:26:57.406Z,9.45
2022-12-13T08:29:34.322Z,9.35
2022-12-13T08:32:09.599Z,9.93
2022-12-13T08:34:36.438Z,7.07
2022-12-13T08:37:04.362Z,6.80
2022-12-13T08:39:35.422Z,7.97
2022-12-13T08:42:16.967Z,19.17
2022-12-13T08:44:49.692Z,8.65
2022-12-13T08:47:24.432Z,7.55
2022-12-13T08:50:02.395Z,9.00
2022-12-13T08:52:31.205Z,24.73
2022-12-13T08:54:58.074Z,14.48
2022-12-13T08:57:24.612Z,21.80
2022-12-13T08:59:51.144Z,20.95
2022-12-13T09:02:17.824Z,14.48
2022-12-13T09:04:44.987Z,11.95
2022-12-13T09:07:12.012Z,22.75
2022-12-13T09:09:38.533Z,13.15
2022-12-13T09:12:10.753Z,10.10
2022-12-13T09:14:38.192Z,8.35
2022-12-13T09:17:14.734Z,11.30
2022-12-13T09:19:57.885Z,13.30
2022-12-13T09:22:33.466Z,12.18
2022-12-13T09:25:02.465Z,12.20
2022-12-13T09:27:31.321Z,16.30
2022-12-13T09:30:08.148Z,9.90
2022-12-13T09:32:34.653Z,11.02
2022-12-13T09:35:01.210Z,12.63
2022-12-13T09:37:29.693Z,13.45
2022-12-13T09:39:56.221Z,10.95
2022-12-13T09:42:30.660Z,14.20
2022-12-13T09:45:22.526Z,14.25
2022-12-13T09:48:00.969Z,19.02
2022-12-13T09:50:38.613Z,16.17
2022-12-13T09:53:11.916Z,17.33
2022-12-13T09:55:43.040Z,19.05
2022-12-13T09:58:29.499Z,11.10
2022-12-13T10:00:57.655Z,18.15
2022-12-13T10:03:26.085Z,13.88
2022-12-13T10:05:59.500Z,13.20
2022-12-13T10:08:48.841Z,10.75
2022-12-13T10:11:17.509Z,13.13
2022-12-13T10:14:05.702Z,11.93
2022-12-13T10:16:36.057Z,13.18
2022-12-13T10:19:28.432Z,15.32
2022-12-13T10:22:01.660Z,14.77
2022-12-13T10:24:47.508Z,9.02
2022-12-13T10:27:17.990Z,12.57
2022-12-13T10:30:10.745Z,11.60
2022-12-13T10:32:46.439Z,14.98
2022-12-13T10:35:23.335Z,16.05
2022-12-13T10:37:49.937Z,16.42
2022-12-13T10:40:35.409Z,15.18
2022-12-13T10:43:22.338Z,19.80
2022-12-13T10:45:58.253Z,24.08
2022-12-13T10:48:50.712Z,13.80
2022-12-13T10:51:20.624Z,18.55
2022-12-13T10:53:57.439Z,13.23
2022-12-13T10:56:36.804Z,13.25
2022-12-13T10:59:22.874Z,15.90
2022-12-13T11:01:49.449Z,12.52
2022-12-13T11:04:27.766Z,15.18
2022-12-13T11:06:55.045Z,15.00
2022-12-13T11:09:38.309Z,13.48
2022-12-13T11:12:18.033Z,11.32
2022-12-13T11:14:54.993Z,9.55
2022-12-13T11:17:24.326Z,14.45
2022-12-13T11:19:56.769Z,12.23
2022-12-13T11:22:37.450Z,8.82
2022-12-13T11:25:23.497Z,8.02
2022-12-13T11:28:03.379Z,10.32
2022-12-13T11:30:38.722Z,9.15
2022-12-13T11:33:48.364Z,8.60
2022-12-13T11:36:33.677Z,8.30
2022-12-13T11:39:32.850Z,8.70
2022-12-13T11:42:26.006Z,10.05
2022-12-13T11:45:25.632Z,7.78
2022-12-13T11:48:12.373Z,9.25
2022-12-13T11:50:57.297Z,10.80
2022-12-13T11:56:26.831Z,7.47
2022-12-13T11:59:19.022Z,9.40
2022-12-13T12:01:55.698Z,11.18
2022-12-13T12:04:39.989Z,7.05
2022-12-13T12:07:31.966Z,13.25
2022-12-13T12:10:13.856Z,10.85
2022-12-13T12:12:45.901Z,10.38
2022-12-13T12:15:41.825Z,11.68
2022-12-13T12:18:15.807Z,11.88
2022-12-13T12:20:52.725Z,10.63
2022-12-13T12:23:52.460Z,9.95
2022-12-13T12:26:27.134Z,11.13
2022-12-13T12:29:31.680Z,13.77
2022-12-13T12:32:07.915Z,17.42
2022-12-13T12:35:02.416Z,15.68
2022-12-13T12:37:38.070Z,19.20
2022-12-13T12:40:07.728Z,17.05
2022-12-13T12:43:14.497Z,14.25
2022-12-13T12:45:55.927Z,15.32
2022-12-13T12:49:02.744Z,16.67
2022-12-13T12:51:35.096Z,15.02
2022-12-13T12:54:26.194Z,16.20
2022-12-13T12:57:30.226Z,14.77
2022-12-13T13:00:14.677Z,10.80
2022-12-13T13:02:53.359Z,12.80
2022-12-13T13:05:34.962Z,12.38
2022-12-13T13:08:12.796Z,17.33
2022-12-13T13:10:50.207Z,13.02
2022-12-13T13:13:36.263Z,8.35
2022-12-13T13:16:27.805Z,16.20
2022-12-13T13:18:55.891Z,11.25
2022-12-13T13:21:33.528Z,15.40
2022-12-13T13:24:09.276Z,12.43
2022-12-13T13:26:44.287Z,13.85
2022-12-13T13:29:43.652Z,9.20
2022-12-13T13:32:29.297Z,15.15
2022-12-13T13:35:28.456Z,11.27
2022-12-13T13:37:55.805Z,14.10
2022-12-13T13:40:48.905Z,15.13
2022-12-13T13:43:31.868Z,13.85
2022-12-13T13:46:10.933Z,14.25
2022-12-13T13:48:46.637Z,14.40
2022-12-13T13:54:45.529Z,18.42
2022-12-13T13:58:08.307Z,22.73
2022-12-13T14:01:05.135Z,22.35
2022-12-13T14:03:59.129Z,15.48
2022-12-13T14:06:48.298Z,16.00
2022-12-13T14:09:26.889Z,11.23
2022-12-13T14:12:15.292Z,15.27
2022-12-13T14:15:25.361Z,19.95
2022-12-13T14:18:13.018Z,22.75
2022-12-13T14:20:57.762Z,27.00
2022-12-13T14:23:36.323Z,21.98
2022-12-13T14:26:21.111Z,15.95
2022-12-13T14:28:53.851Z,21.35
2022-12-13T14:31:27.498Z,26.60
2022-12-13T14:33:56.939Z,17.40
2022-12-13T14:36:32.467Z,21.65
2022-12-13T14:39:01.616Z,25.95
2022-12-13T14:41:28.176Z,30.92
2022-12-13T14:43:54.998Z,26.17
2022-12-13T14:46:21.576Z,13.40
2022-12-13T14:48:51.108Z,13.30
2022-12-13T14:51:33.180Z,10.93
2022-12-13T14:54:02.489Z,14.88
2022-12-13T14:56:29.627Z,7.90
2022-12-13T14:59:02.090Z,13.10
2022-12-13T15:01:37.117Z,9.40
2022-12-13T15:04:37.830Z,14.07
2022-12-13T15:07:37.605Z,11.27
2022-12-13T15:10:34.072Z,11.93
2022-12-13T15:13:00.798Z,13.13
2022-12-13T15:15:31.374Z,10.43
2022-12-13T15:18:09.994Z,13.90
2022-12-13T15:20:41.551Z,15.05
2022-12-13T15:23:17.975Z,18.70
2022-12-13T15:25:45.788Z,26.85
2022-12-13T15:28:21.556Z,19.42
2022-12-13T15:30:48.748Z,14.13
2022-12-13T15:33:28.935Z,12.10
2022-12-13T15:36:08.670Z,10.82
2022-12-13T15:38:40.202Z,10.20
2022-12-13T15:41:07.866Z,7.32
2022-12-13T15:43:45.053Z,11.27
2022-12-13T15:46:11.858Z,11.75
2022-12-13T15:48:48.410Z,13.30
2022-12-13T15:51:29.856Z,10.18
2022-12-13T15:54:21.957Z,17.73
2022-12-13T15:57:04.525Z,14.60
2022-12-13T15:59:35.355Z,14.40
2022-12-13T16:02:04.058Z,9.18
2022-12-13T16:04:32.951Z,14.60
2022-12-13T16:07:01.253Z,21.17
2022-12-13T16:09:33.217Z,14.45
2022-12-13T16:12:05.333Z,17.38
2022-12-13T16:14:32.021Z,11.23
2022-12-13T16:17:16.724Z,15.60
2022-12-13T16:19:43.639Z,17.55
2022-12-13T16:22:10.357Z,19.77
2022-12-13T16:24:36.960Z,22.80
2022-12-13T16:27:08.672Z,22.58
2022-12-13T16:29:36.121Z,18.52
2022-12-13T16:32:08.418Z,22.05
2022-12-13T16:34:36.299Z,22.98
2022-12-13T16:37:03.571Z,28.13
2022-12-13T16:39:35.450Z,20.38
2022-12-13T16:42:01.982Z,23.98
2022-12-13T16:44:41.162Z,24.80
2022-12-13T16:47:14.517Z,22.85
2022-12-13T16:49:45.457Z,21.52
2022-12-13T16:52:12.231Z,17.77
2022-12-13T16:54:38.789Z,15.43
2022-12-13T16:57:05.341Z,15.38
2022-12-13T16:59:31.832Z,23.95
2022-12-13T17:01:58.507Z,16.88
2022-12-13T17:04:27.444Z,17.25
2022-12-13T17:06:54.564Z,19.23
2022-12-13T17:09:22.476Z,20.73
2022-12-13T17:11:49.154Z,21.42
2022-12-13T17:14:15.763Z,19.95
2022-12-13T17:16:42.434Z,19.40
2022-12-13T17:19:10.692Z,20.83
2022-12-13T17:21:37.225Z,16.70
2022-12-13T17:24:03.970Z,19.52
2022-12-13T17:26:30.794Z,18.08
2022-12-13T17:28:57.361Z,19.15
2022-12-13T17:31:23.984Z,25.80
2022-12-13T17:33:50.562Z,23.60
2022-12-13T17:36:17.276Z,20.77
2022-12-13T17:38:45.765Z,24.35
2022-12-13T17:41:14.203Z,23.55
2022-12-13T17:43:42.236Z,21.38
2022-12-13T17:46:15.813Z,24.80
2022-12-13T17:48:43.659Z,24.92
2022-12-13T17:51:12.061Z,21.45
2022-12-13T17:53:39.925Z,17.88
2022-12-13T17:56:09.478Z,19.73
2022-12-13T17:58:36.130Z,19.20
2022-12-13T18:01:20.868Z,17.00
2022-12-13T18:03:48.916Z,19.17
2022-12-13T18:06:16.192Z,23.48
2022-12-13T18:08:44.483Z,20.35
2022-12-13T18:14:00.367Z,19.65
2022-12-13T18:16:35.804Z,15.23
2022-12-13T18:19:06.045Z,17.10
2022-12-13T18:21:32.929Z,23.73
2022-12-13T18:23:59.813Z,26.92
2022-12-13T18:26:26.481Z,18.60
2022-12-13T18:28:53.091Z,20.50
2022-12-13T18:31:22.679Z,14.57
2022-12-13T18:33:50.921Z,19.10
2022-12-13T18:36:18.558Z,17.63
2022-12-13T18:38:45.298Z,15.63
2022-12-13T18:41:23.859Z,12.57
2022-12-13T18:43:56.124Z,13.65
2022-12-13T18:46:27.549Z,17.30
2022-12-13T18:48:54.181Z,16.13
2022-12-13T18:51:20.803Z,12.20
2022-12-13T18:53:47.424Z,13.02
2022-12-13T18:56:18.722Z,11.77
2022-12-13T18:58:47.086Z,13.32
2022-12-13T19:01:15.780Z,12.07
2022-12-13T19:03:46.887Z,11.15
2022-12-13T19:06:19.289Z,9.85
2022-12-13T19:08:51.317Z,10.07
2022-12-13T19:11:18.798Z,8.57
2022-12-13T19:13:46.098Z,10.98
2022-12-13T19:16:18.152Z,10.75
2022-12-13T19:18:44.982Z,8.20
2022-12-13T19:21:16.114Z,9.90
2022-12-13T19:23:42.954Z,8.52
2022-12-13T19:26:13.033Z,11.68
2022-12-13T19:28:41.439Z,7.88
2022-12-13T19:31:15.619Z,9.43
2022-12-13T19:33:42.820Z,9.70
2022-12-13T19:36:10.869Z,9.02
2022-12-13T19:38:38.446Z,8.68
2022-12-13T19:41:16.973Z,7.22
2022-12-13T19:43:47.758Z,7.07
2022-12-13T19:46:19.355Z,9.07
2022-12-13T19:48:45.910Z,9.93
2022-12-13T19:51:12.474Z,6.43
2022-12-13T19:53:39.721Z,9.05
2022-12-13T19:56:11.523Z,9.38
2022-12-13T19:58:39.495Z,8.98
2022-12-13T20:01:07.048Z,8.60
2022-12-13T20:03:42.033Z,7.28
2022-12-13T20:06:11.313Z,9.52
2022-12-13T20:08:37.877Z,10.60
2022-12-13T20:11:11.009Z,7.50
2022-12-13T20:13:37.780Z,7.97
2022-12-13T20:16:05.190Z,7.90
2022-12-13T20:18:34.041Z,8.98
2022-12-13T20:21:13.299Z,9.98
2022-12-13T20:23:42.293Z,9.80
2022-12-13T20:26:18.375Z,9.48
2022-12-13T20:28:44.902Z,10.77
2022-12-13T20:31:14.611Z,7.80
2022-12-13T20:33:42.318Z,8.93
2022-12-13T20:36:27.744Z,10.65
2022-12-13T20:38:59.746Z,8.48
2022-12-13T20:41:28.623Z,7.32
2022-12-13T20:43:57.381Z,8.90
2022-12-13T20:46:24.869Z,8.10
2022-12-13T20:48:52.647Z,8.38
2022-12-13T20:51:22.061Z,9.88
2022-12-13T20:53:50.128Z,10.15
2022-12-13T20:56:20.370Z,9.32
2022-12-13T20:58:46.970Z,8.27
2022-12-13T21:01:19.395Z,8.70
2022-12-13T21:03:46.667Z,9.95
2022-12-13T21:06:13.564Z,13.02
2022-12-13T21:08:51.777Z,9.70
2022-12-13T21:11:26.893Z,9.63
2022-12-13T21:14:04.009Z,9.13
2022-12-13T21:16:39.534Z,10.90
2022-12-13T21:19:07.476Z,11.50
2022-12-13T21:21:34.870Z,11.85
2022-12-13T21:24:03.143Z,9.00
2022-12-13T21:26:34.908Z,10.80
2022-12-13T21:29:06.675Z,7.80
2022-12-13T21:31:34.692Z,10.88
2022-12-13T21:34:02.330Z,8.25
2022-12-13T21:36:34.001Z,10.02
2022-12-13T21:39:02.620Z,12.95
2022-12-13T21:41:29.522Z,10.93
2022-12-13T21:43:56.524Z,9.82
2022-12-13T21:46:35.767Z,7.53
2022-12-13T21:49:12.149Z,9.68
2022-12-13T21:51:42.105Z,9.60
2022-12-13T21:54:11.694Z,9.88
2022-12-13T21:56:56.749Z,7.50
2022-12-13T22:02:14.938Z,9.02
2022-12-13T22:04:48.247Z,7.28
2022-12-13T22:07:20.683Z,9.05
2022-12-13T22:09:48.239Z,9.15
2022-12-13T22:12:20.456Z,9.70
2022-12-13T22:14:47.492Z,13.48
2022-12-13T22:17:14.653Z,11.15
2022-12-13T22:19:41.810Z,10.45
2022-12-13T22:22:08.568Z,8.60
2022-12-13T22:24:35.108Z,11.65
2022-12-13T22:27:01.703Z,7.95
2022-12-13T22:29:28.433Z,7.70
2022-12-13T22:31:55.104Z,7.50
2022-12-13T22:34:21.713Z,7.88
2022-12-13T22:36:48.241Z,10.23
2022-12-13T22:39:19.644Z,10.48
2022-12-13T22:41:47.325Z,9.65
2022-12-13T22:44:15.502Z,10.60
2022-12-13T22:46:42.370Z,11.18
2022-12-13T22:49:10.549Z,9.13
2022-12-13T22:51:37.692Z,11.60
2022-12-13T22:54:04.561Z,9.57
2022-12-13T22:56:32.027Z,11.50
2022-12-13T22:59:03.453Z,9.35
2022-12-13T23:01:36.015Z,6.93
2022-12-13T23:04:03.308Z,10.68
2022-12-13T23:06:32.378Z,12.30
2022-12-13T23:09:00.990Z,10.63
2022-12-13T23:11:47.660Z,11.05
2022-12-13T23:14:17.328Z,10.95
2022-12-13T23:16:44.726Z,9.27
2022-12-13T23:19:41.018Z,9.38
2022-12-13T23:22:01.469Z,8.70
2022-12-13T23:24:28.016Z,8.30
2022-12-13T23:26:54.535Z,7.30
2022-12-13T23:29:21.085Z,8.05
2022-12-13T23:31:48.397Z,8.38
2022-12-13T23:34:15.559Z,5.88
2022-12-13T23:36:42.210Z,6.20
2022-12-13T23:39:09.254Z,8.70
2022-12-13T23:41:36.421Z,6.72
2022-12-13T23:44:04.369Z,8.13
2022-12-13T23:46:33.445Z,5.85
2022-12-13T23:49:01.774Z,6.63
2022-12-13T23:51:28.649Z,6.72
2022-12-13T23:53:55.384Z,8.50
2022-12-13T23:56:23.493Z,7.10
2022-12-13T23:58:50.640Z,8.75
